sensor_id;sensor_type;location;lat;lon;timestamp;pressure;altitude;pressure_sealevel;temperature;humidity
62164;BME280;48149;51.132;7.178;2023-04-03T00:02:21;99856.50;;;11.01;nan
62164;BME280;48149;51.132;7.178;2023-04-03T00:04:47;99851.97;;;10.74;nan
62164;BME280;48149;51.132;7.178;2023-04-03T00:07:12;99857.06;;;10.96;nan
62164;BME280;48149;51.132;7.178;2023-04-03T00:09:37;99858.97;;;11.23;nan
62164;BME280;48149;51.132;7.178;2023-04-03T00:12:02;99863.13;;;11.60;nan
62164;BME280;48149;51.132;7.178;2023-04-03T00:14:28;99861.50;;;11.81;nan
62164;BME280;48149;51.132;7.178;2023-04-03T00:16:53;99860.50;;;11.60;nan
62164;BME280;48149;51.132;7.178;2023-04-03T00:19:18;99861.06;;;11.13;nan
62164;BME280;48149;51.132;7.178;2023-04-03T00:21:43;99858.94;;;11.02;nan
62164;BME280;48149;51.132;7.178;2023-04-03T00:24:09;99861.56;;;11.87;nan
62164;BME280;48149;51.132;7.178;2023-04-03T00:26:34;99863.97;;;10.83;nan
62164;BME280;48149;51.132;7.178;2023-04-03T00:28:59;99865.63;;;11.05;nan
62164;BME280;48149;51.132;7.178;2023-04-03T00:31:25;99861.94;;;11.20;nan
62164;BME280;48149;51.132;7.178;2023-04-03T00:33:50;99859.13;;;11.22;nan
62164;BME280;48149;51.132;7.178;2023-04-03T00:36:15;99860.97;;;11.43;nan
62164;BME280;48149;51.132;7.178;2023-04-03T00:38:40;99866.94;;;11.15;nan
62164;BME280;48149;51.132;7.178;2023-04-03T00:41:06;99870.59;;;11.63;nan
62164;BME280;48149;51.132;7.178;2023-04-03T00:43:31;99855.25;;;11.60;nan
62164;BME280;48149;51.132;7.178;2023-04-03T00:45:57;99858.94;;;11.66;nan
62164;BME280;48149;51.132;7.178;2023-04-03T00:48:24;99853.91;;;11.92;nan
62164;BME280;48149;51.132;7.178;2023-04-03T00:50:51;99861.69;;;11.58;nan
62164;BME280;48149;51.132;7.178;2023-04-03T00:53:27;99849.47;;;11.22;nan
62164;BME280;48149;51.132;7.178;2023-04-03T00:55:55;99855.75;;;11.07;nan
62164;BME280;48149;51.132;7.178;2023-04-03T00:58:21;99856.31;;;11.66;nan
62164;BME280;48149;51.132;7.178;2023-04-03T01:00:50;99849.16;;;11.53;nan
62164;BME280;48149;51.132;7.178;2023-04-03T01:03:22;99857.16;;;12.22;nan
62164;BME280;48149;51.132;7.178;2023-04-03T01:05:47;99856.63;;;10.93;nan
62164;BME280;48149;51.132;7.178;2023-04-03T01:08:13;99849.03;;;10.62;nan
62164;BME280;48149;51.132;7.178;2023-04-03T01:10:38;99850.13;;;10.89;nan
62164;BME280;48149;51.132;7.178;2023-04-03T01:13:17;99852.72;;;10.67;nan
62164;BME280;48149;51.132;7.178;2023-04-03T01:15:42;99851.59;;;10.77;nan
62164;BME280;48149;51.132;7.178;2023-04-03T01:18:09;99849.22;;;11.17;nan
62164;BME280;48149;51.132;7.178;2023-04-03T01:20:36;99853.81;;;11.79;nan
62164;BME280;48149;51.132;7.178;2023-04-03T01:25:31;99848.78;;;10.78;nan
62164;BME280;48149;51.132;7.178;2023-04-03T01:27:56;99849.06;;;10.68;nan
62164;BME280;48149;51.132;7.178;2023-04-03T01:30:22;99852.19;;;10.93;nan
62164;BME280;48149;51.132;7.178;2023-04-03T01:32:50;99853.66;;;11.17;nan
62164;BME280;48149;51.132;7.178;2023-04-03T01:35:15;99846.47;;;11.47;nan
62164;BME280;48149;51.132;7.178;2023-04-03T01:37:40;99854.63;;;11.80;nan
62164;BME280;48149;51.132;7.178;2023-04-03T01:40:05;99851.25;;;11.01;nan
62164;BME280;48149;51.132;7.178;2023-04-03T01:42:32;99851.22;;;11.37;nan
62164;BME280;48149;51.132;7.178;2023-04-03T01:44:57;99855.78;;;11.28;nan
62164;BME280;48149;51.132;7.178;2023-04-03T01:47:22;99855.81;;;11.35;nan
62164;BME280;48149;51.132;7.178;2023-04-03T01:49:47;99861.06;;;11.77;nan
62164;BME280;48149;51.132;7.178;2023-04-03T01:52:13;99859.50;;;11.83;nan
62164;BME280;48149;51.132;7.178;2023-04-03T01:54:38;99859.59;;;10.39;nan
62164;BME280;48149;51.132;7.178;2023-04-03T01:57:03;99862.25;;;11.11;nan
62164;BME280;48149;51.132;7.178;2023-04-03T01:59:28;99860.44;;;11.54;nan
62164;BME280;48149;51.132;7.178;2023-04-03T02:01:54;99854.84;;;10.79;nan
62164;BME280;48149;51.132;7.178;2023-04-03T02:04:19;99858.22;;;11.08;nan
62164;BME280;48149;51.132;7.178;2023-04-03T02:06:44;99856.75;;;11.48;nan
62164;BME280;48149;51.132;7.178;2023-04-03T02:09:10;99856.31;;;11.66;nan
62164;BME280;48149;51.132;7.178;2023-04-03T02:11:35;99855.66;;;11.15;nan
62164;BME280;48149;51.132;7.178;2023-04-03T02:14:00;99842.69;;;11.28;nan
62164;BME280;48149;51.132;7.178;2023-04-03T02:16:25;99847.78;;;11.79;nan
62164;BME280;48149;51.132;7.178;2023-04-03T02:18:51;99844.59;;;11.41;nan
62164;BME280;48149;51.132;7.178;2023-04-03T02:21:16;99841.03;;;11.48;nan
62164;BME280;48149;51.132;7.178;2023-04-03T02:23:41;99844.28;;;11.50;nan
62164;BME280;48149;51.132;7.178;2023-04-03T02:26:07;99852.88;;;11.02;nan
62164;BME280;48149;51.132;7.178;2023-04-03T02:28:33;99855.88;;;10.48;nan
62164;BME280;48149;51.132;7.178;2023-04-03T02:30:58;99853.38;;;9.74;nan
62164;BME280;48149;51.132;7.178;2023-04-03T02:33:24;99858.91;;;9.93;nan
62164;BME280;48149;51.132;7.178;2023-04-03T02:35:52;99859.06;;;10.29;nan
62164;BME280;48149;51.132;7.178;2023-04-03T02:38:18;99860.59;;;10.38;nan
62164;BME280;48149;51.132;7.178;2023-04-03T02:40:43;99861.84;;;10.42;nan
62164;BME280;48149;51.132;7.178;2023-04-03T02:43:08;99858.09;;;10.81;nan
62164;BME280;48149;51.132;7.178;2023-04-03T02:45:34;99857.25;;;10.15;nan
62164;BME280;48149;51.132;7.178;2023-04-03T02:47:59;99860.84;;;10.94;nan
62164;BME280;48149;51.132;7.178;2023-04-03T02:50:24;99866.16;;;10.50;nan
62164;BME280;48149;51.132;7.178;2023-04-03T02:52:49;99875.63;;;10.07;nan
62164;BME280;48149;51.132;7.178;2023-04-03T02:55:15;99864.84;;;9.73;nan
62164;BME280;48149;51.132;7.178;2023-04-03T02:57:41;99871.69;;;9.74;nan
62164;BME280;48149;51.132;7.178;2023-04-03T03:00:06;99865.19;;;9.47;nan
62164;BME280;48149;51.132;7.178;2023-04-03T03:02:31;99864.50;;;9.30;nan
62164;BME280;48149;51.132;7.178;2023-04-03T03:04:56;99871.47;;;9.98;nan
62164;BME280;48149;51.132;7.178;2023-04-03T03:07:22;99867.69;;;9.63;nan
62164;BME280;48149;51.132;7.178;2023-04-03T03:09:47;99862.47;;;9.63;nan
62164;BME280;48149;51.132;7.178;2023-04-03T03:12:12;99870.44;;;9.24;nan
62164;BME280;48149;51.132;7.178;2023-04-03T03:14:38;99869.91;;;9.29;nan
62164;BME280;48149;51.132;7.178;2023-04-03T03:17:03;99867.13;;;8.77;nan
62164;BME280;48149;51.132;7.178;2023-04-03T03:19:28;99873.28;;;9.60;nan
62164;BME280;48149;51.132;7.178;2023-04-03T03:21:53;99866.53;;;8.97;nan
62164;BME280;48149;51.132;7.178;2023-04-03T03:24:19;99877.75;;;8.67;nan
62164;BME280;48149;51.132;7.178;2023-04-03T03:26:44;99868.13;;;8.98;nan
62164;BME280;48149;51.132;7.178;2023-04-03T03:29:09;99870.88;;;9.05;nan
62164;BME280;48149;51.132;7.178;2023-04-03T03:31:34;99868.88;;;9.75;nan
62164;BME280;48149;51.132;7.178;2023-04-03T03:34:00;99866.47;;;9.05;nan
62164;BME280;48149;51.132;7.178;2023-04-03T03:36:25;99875.75;;;8.46;nan
62164;BME280;48149;51.132;7.178;2023-04-03T03:38:50;99870.47;;;8.54;nan
62164;BME280;48149;51.132;7.178;2023-04-03T03:41:15;99875.97;;;8.29;nan
62164;BME280;48149;51.132;7.178;2023-04-03T03:43:41;99873.22;;;8.69;nan
62164;BME280;48149;51.132;7.178;2023-04-03T03:46:06;99867.97;;;9.00;nan
62164;BME280;48149;51.132;7.178;2023-04-03T03:48:31;99865.59;;;8.90;nan
62164;BME280;48149;51.132;7.178;2023-04-03T03:50:56;99867.84;;;9.61;nan
62164;BME280;48149;51.132;7.178;2023-04-03T03:53:21;99869.47;;;9.85;nan
62164;BME280;48149;51.132;7.178;2023-04-03T03:55:47;99865.22;;;9.84;nan
62164;BME280;48149;51.132;7.178;2023-04-03T03:58:12;99870.03;;;9.58;nan
62164;BME280;48149;51.132;7.178;2023-04-03T04:00:37;99861.97;;;9.45;nan
62164;BME280;48149;51.132;7.178;2023-04-03T04:03:02;99869.03;;;9.59;nan
62164;BME280;48149;51.132;7.178;2023-04-03T04:05:28;99866.88;;;9.62;nan
62164;BME280;48149;51.132;7.178;2023-04-03T04:07:53;99865.59;;;9.58;nan
62164;BME280;48149;51.132;7.178;2023-04-03T04:10:18;99868.28;;;9.50;nan
62164;BME280;48149;51.132;7.178;2023-04-03T04:12:43;99873.91;;;8.94;nan
62164;BME280;48149;51.132;7.178;2023-04-03T04:15:09;99872.16;;;9.09;nan
62164;BME280;48149;51.132;7.178;2023-04-03T04:17:34;99874.16;;;9.07;nan
62164;BME280;48149;51.132;7.178;2023-04-03T04:20:00;99877.66;;;8.91;nan
62164;BME280;48149;51.132;7.178;2023-04-03T04:22:25;99872.91;;;9.63;nan
62164;BME280;48149;51.132;7.178;2023-04-03T04:24:50;99875.50;;;9.26;nan
62164;BME280;48149;51.132;7.178;2023-04-03T04:27:15;99883.16;;;9.04;nan
62164;BME280;48149;51.132;7.178;2023-04-03T04:29:41;99886.06;;;8.71;nan
62164;BME280;48149;51.132;7.178;2023-04-03T04:32:06;99875.72;;;9.39;nan
62164;BME280;48149;51.132;7.178;2023-04-03T04:34:31;99882.56;;;9.17;nan
62164;BME280;48149;51.132;7.178;2023-04-03T04:36:57;99875.66;;;10.22;nan
62164;BME280;48149;51.132;7.178;2023-04-03T04:39:22;99876.72;;;9.75;nan
62164;BME280;48149;51.132;7.178;2023-04-03T04:41:47;99886.06;;;9.92;nan
62164;BME280;48149;51.132;7.178;2023-04-03T04:44:12;99881.44;;;9.80;nan
62164;BME280;48149;51.132;7.178;2023-04-03T04:46:38;99885.25;;;10.06;nan
62164;BME280;48149;51.132;7.178;2023-04-03T04:49:03;99885.25;;;9.92;nan
62164;BME280;48149;51.132;7.178;2023-04-03T04:51:28;99891.50;;;9.68;nan
62164;BME280;48149;51.132;7.178;2023-04-03T04:53:54;99893.97;;;10.22;nan
62164;BME280;48149;51.132;7.178;2023-04-03T04:56:19;99900.91;;;9.77;nan
62164;BME280;48149;51.132;7.178;2023-04-03T04:58:45;99900.56;;;9.12;nan
62164;BME280;48149;51.132;7.178;2023-04-03T05:01:11;99907.09;;;8.22;nan
62164;BME280;48149;51.132;7.178;2023-04-03T05:03:36;99912.47;;;8.84;nan
62164;BME280;48149;51.132;7.178;2023-04-03T05:06:01;99903.81;;;10.34;nan
62164;BME280;48149;51.132;7.178;2023-04-03T05:08:26;99901.59;;;8.72;nan
62164;BME280;48149;51.132;7.178;2023-04-03T05:10:52;99907.03;;;8.93;nan
62164;BME280;48149;51.132;7.178;2023-04-03T05:13:18;99910.41;;;9.02;nan
62164;BME280;48149;51.132;7.178;2023-04-03T05:15:43;99910.66;;;9.15;nan
62164;BME280;48149;51.132;7.178;2023-04-03T05:18:09;99913.06;;;8.94;nan
62164;BME280;48149;51.132;7.178;2023-04-03T05:20:34;99917.66;;;8.53;nan
62164;BME280;48149;51.132;7.178;2023-04-03T05:23:00;99912.56;;;8.51;nan
62164;BME280;48149;51.132;7.178;2023-04-03T05:25:25;99918.28;;;8.55;nan
62164;BME280;48149;51.132;7.178;2023-04-03T05:27:51;99925.03;;;8.01;nan
62164;BME280;48149;51.132;7.178;2023-04-03T05:30:16;99923.09;;;8.19;nan
62164;BME280;48149;51.132;7.178;2023-04-03T05:32:41;99928.78;;;8.15;nan
62164;BME280;48149;51.132;7.178;2023-04-03T05:35:07;99930.75;;;8.29;nan
62164;BME280;48149;51.132;7.178;2023-04-03T05:37:33;99926.19;;;7.82;nan
62164;BME280;48149;51.132;7.178;2023-04-03T05:39:58;99922.78;;;7.90;nan
62164;BME280;48149;51.132;7.178;2023-04-03T05:42:24;99932.22;;;8.31;nan
62164;BME280;48149;51.132;7.178;2023-04-03T05:44:49;99935.78;;;8.30;nan
62164;BME280;48149;51.132;7.178;2023-04-03T05:47:15;99945.75;;;8.35;nan
62164;BME280;48149;51.132;7.178;2023-04-03T05:49:40;99941.84;;;8.31;nan
62164;BME280;48149;51.132;7.178;2023-04-03T05:52:09;99943.22;;;9.04;nan
62164;BME280;48149;51.132;7.178;2023-04-03T05:54:37;99940.84;;;9.18;nan
62164;BME280;48149;51.132;7.178;2023-04-03T05:57:02;99948.91;;;10.22;nan
62164;BME280;48149;51.132;7.178;2023-04-03T05:59:28;99939.72;;;9.65;nan
62164;BME280;48149;51.132;7.178;2023-04-03T06:01:53;99945.16;;;8.64;nan
62164;BME280;48149;51.132;7.178;2023-04-03T06:04:18;99952.75;;;8.89;nan
62164;BME280;48149;51.132;7.178;2023-04-03T06:06:45;99947.47;;;8.67;nan
62164;BME280;48149;51.132;7.178;2023-04-03T06:09:11;99948.56;;;8.72;nan
62164;BME280;48149;51.132;7.178;2023-04-03T06:11:36;99953.53;;;8.98;nan
62164;BME280;48149;51.132;7.178;2023-04-03T06:14:02;99951.78;;;9.21;nan
62164;BME280;48149;51.132;7.178;2023-04-03T06:16:28;99960.59;;;10.34;nan
62164;BME280;48149;51.132;7.178;2023-04-03T06:18:56;99960.19;;;9.62;nan
62164;BME280;48149;51.132;7.178;2023-04-03T06:21:22;99961.72;;;9.94;nan
62164;BME280;48149;51.132;7.178;2023-04-03T06:23:47;99960.75;;;9.72;nan
62164;BME280;48149;51.132;7.178;2023-04-03T06:26:12;99959.16;;;9.48;nan
62164;BME280;48149;51.132;7.178;2023-04-03T06:28:37;99962.47;;;10.25;nan
62164;BME280;48149;51.132;7.178;2023-04-03T06:31:03;99958.53;;;10.06;nan
62164;BME280;48149;51.132;7.178;2023-04-03T06:33:28;99965.47;;;9.54;nan
62164;BME280;48149;51.132;7.178;2023-04-03T06:35:57;99962.47;;;10.02;nan
62164;BME280;48149;51.132;7.178;2023-04-03T06:38:22;99963.28;;;10.40;nan
62164;BME280;48149;51.132;7.178;2023-04-03T06:40:48;99963.50;;;10.53;nan
62164;BME280;48149;51.132;7.178;2023-04-03T06:43:13;99960.06;;;10.38;nan
62164;BME280;48149;51.132;7.178;2023-04-03T06:45:38;99957.91;;;9.82;nan
62164;BME280;48149;51.132;7.178;2023-04-03T06:48:03;99959.91;;;9.80;nan
62164;BME280;48149;51.132;7.178;2023-04-03T06:50:29;99962.09;;;9.68;nan
62164;BME280;48149;51.132;7.178;2023-04-03T06:52:54;99956.38;;;9.87;nan
62164;BME280;48149;51.132;7.178;2023-04-03T06:55:19;99964.16;;;10.55;nan
62164;BME280;48149;51.132;7.178;2023-04-03T06:57:45;99961.16;;;10.73;nan
62164;BME280;48149;51.132;7.178;2023-04-03T07:00:11;99966.03;;;9.87;nan
62164;BME280;48149;51.132;7.178;2023-04-03T07:02:36;99968.16;;;10.06;nan
62164;BME280;48149;51.132;7.178;2023-04-03T07:05:02;99973.88;;;10.76;nan
62164;BME280;48149;51.132;7.178;2023-04-03T07:07:27;99973.44;;;10.87;nan
62164;BME280;48149;51.132;7.178;2023-04-03T07:09:52;99969.28;;;10.11;nan
62164;BME280;48149;51.132;7.178;2023-04-03T07:12:18;99971.09;;;10.63;nan
62164;BME280;48149;51.132;7.178;2023-04-03T07:14:43;99978.31;;;11.76;nan
62164;BME280;48149;51.132;7.178;2023-04-03T07:17:08;99968.56;;;11.92;nan
62164;BME280;48149;51.132;7.178;2023-04-03T07:19:34;99981.75;;;11.77;nan
62164;BME280;48149;51.132;7.178;2023-04-03T07:21:59;99990.88;;;11.45;nan
62164;BME280;48149;51.132;7.178;2023-04-03T07:24:24;99981.00;;;11.47;nan
62164;BME280;48149;51.132;7.178;2023-04-03T07:26:50;99986.06;;;11.49;nan
62164;BME280;48149;51.132;7.178;2023-04-03T07:29:15;99978.19;;;11.49;nan
62164;BME280;48149;51.132;7.178;2023-04-03T07:31:42;99989.25;;;11.80;nan
62164;BME280;48149;51.132;7.178;2023-04-03T07:34:09;99984.28;;;11.35;nan
62164;BME280;48149;51.132;7.178;2023-04-03T07:36:35;99994.16;;;11.33;nan
62164;BME280;48149;51.132;7.178;2023-04-03T07:39:01;99995.47;;;11.79;nan
62164;BME280;48149;51.132;7.178;2023-04-03T07:41:26;99990.47;;;11.27;nan
62164;BME280;48149;51.132;7.178;2023-04-03T07:43:51;99984.66;;;11.67;nan
62164;BME280;48149;51.132;7.178;2023-04-03T07:46:17;99984.88;;;12.70;nan
62164;BME280;48149;51.132;7.178;2023-04-03T07:48:43;99984.13;;;12.76;nan
62164;BME280;48149;51.132;7.178;2023-04-03T07:51:09;99999.53;;;12.79;nan
62164;BME280;48149;51.132;7.178;2023-04-03T07:53:35;99983.81;;;12.30;nan
62164;BME280;48149;51.132;7.178;2023-04-03T07:56:00;99990.38;;;12.41;nan
62164;BME280;48149;51.132;7.178;2023-04-03T07:58:27;99980.09;;;12.46;nan
62164;BME280;48149;51.132;7.178;2023-04-03T08:00:52;99984.75;;;12.44;nan
62164;BME280;48149;51.132;7.178;2023-04-03T08:03:18;99990.66;;;12.53;nan
62164;BME280;48149;51.132;7.178;2023-04-03T08:05:44;99993.34;;;13.41;nan
62164;BME280;48149;51.132;7.178;2023-04-03T08:08:11;99995.56;;;12.97;nan
62164;BME280;48149;51.132;7.178;2023-04-03T08:10:37;99992.91;;;12.28;nan
62164;BME280;48149;51.132;7.178;2023-04-03T08:13:03;100003.28;;;12.15;nan
62164;BME280;48149;51.132;7.178;2023-04-03T08:15:29;100003.16;;;12.78;nan
62164;BME280;48149;51.132;7.178;2023-04-03T08:17:55;100000.69;;;13.65;nan
62164;BME280;48149;51.132;7.178;2023-04-03T08:20:20;99995.47;;;14.31;nan
62164;BME280;48149;51.132;7.178;2023-04-03T08:22:46;100005.72;;;13.54;nan
62164;BME280;48149;51.132;7.178;2023-04-03T08:25:11;100008.72;;;12.35;nan
62164;BME280;48149;51.132;7.178;2023-04-03T08:27:36;100001.69;;;12.69;nan
62164;BME280;48149;51.132;7.178;2023-04-03T08:30:02;100005.41;;;13.89;nan
62164;BME280;48149;51.132;7.178;2023-04-03T08:32:28;100010.25;;;12.84;nan
62164;BME280;48149;51.132;7.178;2023-04-03T08:34:53;100012.56;;;13.42;nan
62164;BME280;48149;51.132;7.178;2023-04-03T08:37:18;100017.03;;;13.48;nan
62164;BME280;48149;51.132;7.178;2023-04-03T08:39:44;100012.66;;;13.14;nan
62164;BME280;48149;51.132;7.178;2023-04-03T08:42:14;100013.69;;;13.80;nan
62164;BME280;48149;51.132;7.178;2023-04-03T08:50:03;100015.75;;;14.63;nan
62164;BME280;48149;51.132;7.178;2023-04-03T08:55:00;100005.00;;;14.19;nan
62164;BME280;48149;51.132;7.178;2023-04-03T08:57:36;100006.81;;;14.18;nan
62164;BME280;48149;51.132;7.178;2023-04-03T09:00:05;100014.50;;;13.94;nan
62164;BME280;48149;51.132;7.178;2023-04-03T09:02:34;100006.44;;;13.95;nan
62164;BME280;48149;51.132;7.178;2023-04-03T09:05:09;100010.41;;;15.03;nan
62164;BME280;48149;51.132;7.178;2023-04-03T09:07:38;100015.56;;;14.65;nan
62164;BME280;48149;51.132;7.178;2023-04-03T09:10:04;100022.44;;;14.07;nan
62164;BME280;48149;51.132;7.178;2023-04-03T09:12:40;100018.00;;;14.27;nan
62164;BME280;48149;51.132;7.178;2023-04-03T09:20:17;100019.47;;;15.20;nan
62164;BME280;48149;51.132;7.178;2023-04-03T09:22:46;100018.13;;;16.42;nan
62164;BME280;48149;51.132;7.178;2023-04-03T09:25:15;100019.13;;;16.73;nan
62164;BME280;48149;51.132;7.178;2023-04-03T09:27:41;100017.00;;;16.81;nan
62164;BME280;48149;51.132;7.178;2023-04-03T09:30:11;100026.56;;;17.00;nan
62164;BME280;48149;51.132;7.178;2023-04-03T09:32:37;100008.91;;;16.27;nan
62164;BME280;48149;51.132;7.178;2023-04-03T09:35:04;100026.19;;;19.55;nan
62164;BME280;48149;51.132;7.178;2023-04-03T09:37:33;100014.69;;;18.63;nan
62164;BME280;48149;51.132;7.178;2023-04-03T09:39:59;100015.44;;;21.60;nan
62164;BME280;48149;51.132;7.178;2023-04-03T09:42:25;100013.75;;;19.44;nan
62164;BME280;48149;51.132;7.178;2023-04-03T09:44:57;100013.03;;;21.59;nan
62164;BME280;48149;51.132;7.178;2023-04-03T09:49:48;100016.22;;;21.12;nan
62164;BME280;48149;51.132;7.178;2023-04-03T09:52:23;100010.00;;;21.07;nan
62164;BME280;48149;51.132;7.178;2023-04-03T09:54:49;100014.38;;;20.24;nan
62164;BME280;48149;51.132;7.178;2023-04-03T09:57:14;100009.47;;;20.88;nan
62164;BME280;48149;51.132;7.178;2023-04-03T09:59:47;100007.44;;;20.73;nan
62164;BME280;48149;51.132;7.178;2023-04-03T10:02:21;100014.06;;;19.76;nan
62164;BME280;48149;51.132;7.178;2023-04-03T10:04:47;100015.25;;;18.89;nan
62164;BME280;48149;51.132;7.178;2023-04-03T10:12:40;100002.03;;;21.28;nan
62164;BME280;48149;51.132;7.178;2023-04-03T10:15:11;100004.34;;;22.32;nan
62164;BME280;48149;51.132;7.178;2023-04-03T10:17:49;100002.09;;;22.51;nan
62164;BME280;48149;51.132;7.178;2023-04-03T10:23:05;100006.69;;;21.00;nan
62164;BME280;48149;51.132;7.178;2023-04-03T10:28:09;100002.56;;;21.31;nan
62164;BME280;48149;51.132;7.178;2023-04-03T10:35:39;99998.22;;;23.25;nan
62164;BME280;48149;51.132;7.178;2023-04-03T10:43:33;99986.25;;;20.12;nan
62164;BME280;48149;51.132;7.178;2023-04-03T10:46:02;99999.13;;;23.41;nan
62164;BME280;48149;51.132;7.178;2023-04-03T10:51:09;99982.88;;;20.50;nan
62164;BME280;48149;51.132;7.178;2023-04-03T10:53:39;99995.63;;;20.86;nan
62164;BME280;48149;51.132;7.178;2023-04-03T10:56:13;100001.63;;;21.68;nan
62164;BME280;48149;51.132;7.178;2023-04-03T10:58:44;99995.66;;;21.83;nan
62164;BME280;48149;51.132;7.178;2023-04-03T11:01:16;99991.94;;;22.11;nan
62164;BME280;48149;51.132;7.178;2023-04-03T11:03:45;99977.38;;;23.32;nan
62164;BME280;48149;51.132;7.178;2023-04-03T11:06:12;99966.28;;;23.76;nan
62164;BME280;48149;51.132;7.178;2023-04-03T11:11:26;99973.53;;;21.07;nan
62164;BME280;48149;51.132;7.178;2023-04-03T11:14:03;99970.59;;;21.31;nan
62164;BME280;48149;51.132;7.178;2023-04-03T11:16:32;99971.09;;;22.87;nan
62164;BME280;48149;51.132;7.178;2023-04-03T11:19:08;99968.38;;;22.76;nan
62164;BME280;48149;51.132;7.178;2023-04-03T11:21:41;99969.25;;;25.19;nan
62164;BME280;48149;51.132;7.178;2023-04-03T11:24:15;99960.78;;;25.51;nan
62164;BME280;48149;51.132;7.178;2023-04-03T11:26:41;99956.41;;;23.81;nan
62164;BME280;48149;51.132;7.178;2023-04-03T11:29:14;99957.19;;;24.27;nan
62164;BME280;48149;51.132;7.178;2023-04-03T11:37:13;99947.59;;;28.11;nan
62164;BME280;48149;51.132;7.178;2023-04-03T11:39:40;99941.25;;;25.40;nan
62164;BME280;48149;51.132;7.178;2023-04-03T11:42:15;99939.25;;;27.75;nan
62164;BME280;48149;51.132;7.178;2023-04-03T11:44:41;99945.09;;;26.02;nan
62164;BME280;48149;51.132;7.178;2023-04-03T11:47:08;99938.88;;;25.78;nan
62164;BME280;48149;51.132;7.178;2023-04-03T11:49:53;99930.69;;;27.73;nan
62164;BME280;48149;51.132;7.178;2023-04-03T11:53:10;99935.06;;;27.13;nan
62164;BME280;48149;51.132;7.178;2023-04-03T11:58:31;99929.09;;;26.97;nan
62164;BME280;48149;51.132;7.178;2023-04-03T12:00:51;99930.28;;;26.38;nan
62164;BME280;48149;51.132;7.178;2023-04-03T12:05:49;99923.22;;;24.28;nan
62164;BME280;48149;51.132;7.178;2023-04-03T12:08:24;99919.63;;;28.66;nan
62164;BME280;48149;51.132;7.178;2023-04-03T12:11:51;99913.16;;;25.28;nan
62164;BME280;48149;51.132;7.178;2023-04-03T12:21:13;99915.56;;;27.39;nan
62164;BME280;48149;51.132;7.178;2023-04-03T12:26:27;99896.56;;;26.75;nan
62164;BME280;48149;51.132;7.178;2023-04-03T12:28:53;99912.25;;;23.94;nan
62164;BME280;48149;51.132;7.178;2023-04-03T12:31:20;99906.69;;;25.39;nan
62164;BME280;48149;51.132;7.178;2023-04-03T12:36:23;99899.34;;;28.41;nan
62164;BME280;48149;51.132;7.178;2023-04-03T12:38:58;99885.88;;;27.82;nan
62164;BME280;48149;51.132;7.178;2023-04-03T12:44:55;99899.78;;;29.92;nan
62164;BME280;48149;51.132;7.178;2023-04-03T12:46:59;99891.91;;;29.01;nan
62164;BME280;48149;51.132;7.178;2023-04-03T12:51:54;99872.44;;;26.70;nan
62164;BME280;48149;51.132;7.178;2023-04-03T12:54:22;99892.88;;;26.47;nan
62164;BME280;48149;51.132;7.178;2023-04-03T12:56:48;99891.31;;;28.09;nan
62164;BME280;48149;51.132;7.178;2023-04-03T12:59:15;99885.06;;;28.41;nan
62164;BME280;48149;51.132;7.178;2023-04-03T13:01:41;99881.50;;;27.53;nan
62164;BME280;48149;51.132;7.178;2023-04-03T13:04:07;99877.00;;;25.25;nan
62164;BME280;48149;51.132;7.178;2023-04-03T13:06:38;99878.66;;;26.89;nan
62164;BME280;48149;51.132;7.178;2023-04-03T13:09:04;99882.38;;;28.27;nan
62164;BME280;48149;51.132;7.178;2023-04-03T13:11:30;99891.03;;;25.85;nan
62164;BME280;48149;51.132;7.178;2023-04-03T13:13:59;99874.56;;;28.12;nan
62164;BME280;48149;51.132;7.178;2023-04-03T13:16:26;99871.22;;;29.99;nan
62164;BME280;48149;51.132;7.178;2023-04-03T13:18:52;99874.19;;;28.05;nan
62164;BME280;48149;51.132;7.178;2023-04-03T13:21:18;99872.72;;;29.39;nan
62164;BME280;48149;51.132;7.178;2023-04-03T13:23:45;99875.28;;;27.72;nan
62164;BME280;48149;51.132;7.178;2023-04-03T13:26:12;99863.00;;;26.54;nan
62164;BME280;48149;51.132;7.178;2023-04-03T13:28:38;99867.50;;;26.77;nan
62164;BME280;48149;51.132;7.178;2023-04-03T13:33:34;99868.00;;;26.13;nan
62164;BME280;48149;51.132;7.178;2023-04-03T13:36:29;99862.25;;;27.46;nan
62164;BME280;48149;51.132;7.178;2023-04-03T13:39:56;99860.44;;;25.18;nan
62164;BME280;48149;51.132;7.178;2023-04-03T13:41:51;99856.03;;;24.99;nan
62164;BME280;48149;51.132;7.178;2023-04-03T13:51:50;99847.50;;;24.22;nan
62164;BME280;48149;51.132;7.178;2023-04-03T13:54:33;99850.69;;;27.27;nan
62164;BME280;48149;51.132;7.178;2023-04-03T13:57:00;99839.19;;;28.19;nan
62164;BME280;48149;51.132;7.178;2023-04-03T13:59:35;99841.31;;;27.25;nan
62164;BME280;48149;51.132;7.178;2023-04-03T14:06:54;99836.59;;;29.71;nan
62164;BME280;48149;51.132;7.178;2023-04-03T14:09:20;99825.28;;;28.80;nan
62164;BME280;48149;51.132;7.178;2023-04-03T14:11:47;99814.16;;;26.89;nan
62164;BME280;48149;51.132;7.178;2023-04-03T14:14:18;99825.53;;;26.62;nan
62164;BME280;48149;51.132;7.178;2023-04-03T14:16:46;99822.94;;;29.76;nan
62164;BME280;48149;51.132;7.178;2023-04-03T14:19:17;99825.81;;;29.48;nan
62164;BME280;48149;51.132;7.178;2023-04-03T14:21:42;99817.91;;;26.50;nan
62164;BME280;48149;51.132;7.178;2023-04-03T14:24:07;99811.84;;;25.30;nan
62164;BME280;48149;51.132;7.178;2023-04-03T14:26:32;99818.41;;;27.46;nan
62164;BME280;48149;51.132;7.178;2023-04-03T14:28:58;99806.97;;;24.54;nan
62164;BME280;48149;51.132;7.178;2023-04-03T14:31:23;99806.81;;;26.10;nan
62164;BME280;48149;51.132;7.178;2023-04-03T14:33:49;99803.38;;;25.80;nan
62164;BME280;48149;51.132;7.178;2023-04-03T14:36:15;99809.91;;;26.88;nan
62164;BME280;48149;51.132;7.178;2023-04-03T14:38:41;99804.84;;;27.19;nan
62164;BME280;48149;51.132;7.178;2023-04-03T14:41:10;99803.72;;;25.97;nan
62164;BME280;48149;51.132;7.178;2023-04-03T14:43:35;99787.66;;;25.40;nan
62164;BME280;48149;51.132;7.178;2023-04-03T14:46:01;99800.19;;;25.50;nan
62164;BME280;48149;51.132;7.178;2023-04-03T14:48:26;99803.75;;;26.64;nan
62164;BME280;48149;51.132;7.178;2023-04-03T14:50:52;99799.59;;;24.75;nan